Time;durP1;ratioP1;P1;durP2;ratioP2;P2;SDS_P1;SDS_P2;PMS_P1;PMS_P2;Temp;Humidity;BMP_temperature;BMP_pressure;BME280_temperature;BME280_humidity;BME280_pressure;Samples;Min_cycle;Max_cycle;Signal;HPM_P1;HPM_P2
2022/03/12 00:01:29;;;;;;;8.85;5.40;;;9.30;32.50;;;;;;6280354;22;20435;-93
2022/03/12 00:03:55;;;;;;;7.90;5.72;;;9.20;32.50;;;;;;6281116;22;20012;-92
2022/03/12 00:06:24;;;;;;;9.05;5.63;;;9.20;32.60;;;;;;6253783;22;20035;-93
2022/03/12 00:08:51;;;;;;;8.60;6.40;;;9.20;32.60;;;;;;6253958;22;20024;-92
2022/03/12 00:11:19;;;;;;;10.68;6.03;;;9.30;32.70;;;;;;6253687;22;20035;-92
2022/03/12 00:13:47;;;;;;;9.48;5.50;;;9.10;32.70;;;;;;6281165;22;20038;-93
2022/03/12 00:16:16;;;;;;;8.57;5.97;;;9.10;32.60;;;;;;6253868;22;20016;-92
2022/03/12 00:18:43;;;;;;;9.85;5.70;;;9.20;32.70;;;;;;6281282;22;20439;-93
2022/03/12 00:21:11;;;;;;;10.98;6.15;;;9.10;32.70;;;;;;6280964;22;20086;-93
2022/03/12 00:23:37;;;;;;;8.73;5.72;;;9.10;32.60;;;;;;6253504;22;20811;-92
2022/03/12 00:26:03;;;;;;;10.88;5.85;;;9.10;32.60;;;;;;6253572;22;20069;-92
2022/03/12 00:28:29;;;;;;;9.57;5.90;;;9.10;32.60;;;;;;6223835;23;20463;-92
2022/03/12 00:30:54;;;;;;;9.50;5.63;;;9.20;32.60;;;;;;6248701;23;20016;-93
2022/03/12 00:33:21;;;;;;;9.85;5.97;;;9.00;32.60;;;;;;6250009;23;20016;-92
2022/03/12 00:35:48;;;;;;;8.70;5.63;;;9.20;32.70;;;;;;6249878;22;20436;-93
2022/03/12 00:38:16;;;;;;;7.47;5.75;;;9.00;32.70;;;;;;6250660;22;20015;-92
2022/03/12 00:40:42;;;;;;;7.78;5.53;;;9.00;32.70;;;;;;6250042;22;20016;-93
2022/03/12 00:43:08;;;;;;;14.18;6.63;;;9.00;32.80;;;;;;6222974;23;20052;-92
2022/03/12 00:45:33;;;;;;;9.27;5.85;;;9.00;32.90;;;;;;6248087;23;20027;-92
2022/03/12 00:51:41;;;;;;;8.50;5.35;;;8.90;32.80;;;;;;6250919;23;20011;-93
2022/03/12 00:54:07;;;;;;;9.52;5.72;;;8.90;32.90;;;;;;6252702;23;20359;-91
2022/03/12 00:56:33;;;;;;;8.88;5.68;;;8.90;33.10;;;;;;6275145;22;20004;-91
2022/03/12 00:58:59;;;;;;;9.55;6.43;;;8.80;33.10;;;;;;6262512;23;20022;-93
2022/03/12 01:01:28;;;;;;;9.85;5.60;;;8.80;33.20;;;;;;6248872;23;20024;-91
2022/03/12 01:03:53;;;;;;;9.38;5.47;;;8.80;33.10;;;;;;6249940;23;20052;-93
2022/03/12 01:06:19;;;;;;;8.45;5.95;;;8.80;33.20;;;;;;6247896;23;20020;-93
2022/03/12 01:08:46;;;;;;;8.52;5.32;;;8.80;33.30;;;;;;6248093;23;20016;-92
2022/03/12 01:11:12;;;;;;;9.48;5.82;;;8.70;33.30;;;;;;6247578;23;20450;-91
2022/03/12 01:13:39;;;;;;;10.88;5.13;;;8.80;33.40;;;;;;6249359;22;20020;-92
2022/03/12 01:16:06;;;;;;;11.85;6.47;;;8.70;33.40;;;;;;6250071;22;20016;-92
2022/03/12 01:18:38;;;;;;;10.73;6.00;;;8.60;33.40;;;;;;6251830;22;20020;-92
2022/03/12 01:21:17;;;;;;;7.55;5.57;;;8.70;33.60;;;;;;6249515;22;20016;-92
2022/03/12 01:23:45;;;;;;;8.68;5.55;;;8.60;33.50;;;;;;6248298;23;20015;-92
2022/03/12 01:26:11;;;;;;;8.90;6.22;;;8.60;33.60;;;;;;6249561;22;20019;-93
2022/03/12 01:28:37;;;;;;;7.55;5.47;;;8.60;33.70;;;;;;6248148;23;20365;-92
2022/03/12 01:31:03;;;;;;;10.35;5.85;;;8.50;33.60;;;;;;6248249;23;20020;-92
2022/03/12 01:33:29;;;;;;;8.77;5.95;;;8.50;33.70;;;;;;6249643;22;20012;-92
2022/03/12 01:35:56;;;;;;;8.18;5.85;;;8.50;33.60;;;;;;6249333;22;20340;-91
2022/03/12 01:38:33;;;;;;;9.38;5.25;;;8.50;33.80;;;;;;6249665;22;20055;-92
2022/03/12 01:41:02;;;;;;;9.85;5.93;;;8.50;33.80;;;;;;6254192;22;20016;-93
2022/03/12 01:43:31;;;;;;;9.15;5.70;;;8.50;34.00;;;;;;6261193;23;20020;-93
2022/03/12 01:46:00;;;;;;;8.25;5.32;;;8.40;34.00;;;;;;6265188;23;20016;-91
2022/03/12 01:48:26;;;;;;;10.32;5.80;;;8.40;34.00;;;;;;6255145;23;20095;-91
2022/03/12 01:50:52;;;;;;;8.70;6.18;;;8.30;33.80;;;;;;6252969;23;20337;-92
2022/03/12 01:53:17;;;;;;;10.02;5.63;;;8.40;33.90;;;;;;6252257;22;20024;-91
2022/03/12 01:55:43;;;;;;;10.70;6.00;;;8.40;33.80;;;;;;6250023;23;20020;-92
2022/03/12 01:58:09;;;;;;;9.63;5.28;;;8.30;33.80;;;;;;6248342;23;20099;-93
2022/03/12 02:00:41;;;;;;;9.70;5.50;;;8.30;33.90;;;;;;6250066;23;20429;-92
2022/03/12 02:03:08;;;;;;;9.25;6.55;;;8.30;34.00;;;;;;6247739;23;20022;-94
2022/03/12 02:05:34;;;;;;;8.65;5.43;;;8.30;33.80;;;;;;6248058;23;20020;-92
2022/03/12 02:08:01;;;;;;;10.63;6.85;;;8.30;33.80;;;;;;6248068;23;20019;-93
2022/03/12 02:10:27;;;;;;;8.95;5.47;;;8.30;33.80;;;;;;6249368;22;20047;-92
2022/03/12 02:12:53;;;;;;;11.95;6.38;;;8.40;34.00;;;;;;6248431;23;20043;-93
2022/03/12 02:15:21;;;;;;;8.85;6.53;;;8.40;34.00;;;;;;6248724;22;20019;-92
2022/03/12 02:18:24;;;;;;;9.23;5.68;;;8.40;34.10;;;;;;6249136;22;20020;-92
2022/03/12 02:20:49;;;;;;;7.00;5.20;;;8.40;34.00;;;;;;6247263;23;20059;-92
2022/03/12 02:23:15;;;;;;;7.65;5.75;;;8.40;34.00;;;;;;6247602;23;20070;-92
2022/03/12 02:25:41;;;;;;;8.73;5.72;;;8.40;33.90;;;;;;6247114;22;20321;-91
2022/03/12 02:28:16;;;;;;;9.98;5.53;;;8.40;33.80;;;;;;6267247;22;20011;-93
2022/03/12 02:30:51;;;;;;;11.55;6.72;;;8.40;33.80;;;;;;6252671;22;20027;-92
2022/03/12 02:33:24;;;;;;;9.40;6.13;;;8.40;33.90;;;;;;6252149;22;20078;-92
2022/03/12 02:35:51;;;;;;;9.93;6.43;;;8.40;33.60;;;;;;6252004;22;20026;-92
2022/03/12 02:38:18;;;;;;;9.25;6.20;;;8.40;34.10;;;;;;6252445;22;20082;-93
2022/03/12 02:40:45;;;;;;;8.60;6.07;;;8.50;33.80;;;;;;6279246;22;20075;-92
2022/03/12 02:43:13;;;;;;;9.35;6.65;;;8.40;33.60;;;;;;6279254;22;20011;-93
2022/03/12 02:45:40;;;;;;;10.23;6.15;;;8.40;33.70;;;;;;6252254;22;20054;-92
2022/03/12 02:48:08;;;;;;;10.52;5.57;;;8.50;33.80;;;;;;6278950;22;20020;-92
2022/03/12 02:50:35;;;;;;;8.32;6.30;;;8.50;33.70;;;;;;6279699;22;20019;-93
2022/03/12 02:53:00;;;;;;;8.23;6.35;;;8.50;33.80;;;;;;6252586;22;20011;-92
2022/03/12 02:55:26;;;;;;;8.90;5.60;;;8.50;33.90;;;;;;6279105;22;20420;-93
2022/03/12 02:57:52;;;;;;;7.30;6.07;;;8.30;33.70;;;;;;6279718;22;20026;-92
2022/03/12 03:00:20;;;;;;;9.20;5.97;;;8.50;33.80;;;;;;6227078;22;20023;-91
2022/03/12 03:06:27;;;;;;;8.50;6.70;;;8.50;33.90;;;;;;6279439;22;20031;-92
2022/03/12 03:08:53;;;;;;;9.38;6.40;;;8.50;34.00;;;;;;6280365;22;20016;-92
2022/03/12 03:11:19;;;;;;;8.65;6.03;;;8.50;34.10;;;;;;6252776;22;20020;-91
2022/03/12 03:13:45;;;;;;;9.55;6.18;;;8.50;34.00;;;;;;6280824;22;20012;-92
2022/03/12 03:16:20;;;;;;;12.15;6.10;;;8.50;34.10;;;;;;6280626;22;20043;-93
2022/03/12 03:18:51;;;;;;;8.52;5.68;;;8.50;34.30;;;;;;6279661;22;20011;-93
2022/03/12 03:21:19;;;;;;;9.85;6.40;;;8.50;34.70;;;;;;6252095;22;20745;-91
2022/03/12 03:23:45;;;;;;;10.77;7.03;;;8.50;35.00;;;;;;6279522;22;20062;-92
2022/03/12 03:26:12;;;;;;;9.20;6.65;;;8.40;34.90;;;;;;6251955;22;20011;-91
2022/03/12 03:28:37;;;;;;;8.52;6.55;;;8.40;35.10;;;;;;6279005;22;20023;-92
2022/03/12 03:31:07;;;;;;;10.25;7.00;;;8.50;35.50;;;;;;6226368;22;20020;-91
2022/03/12 03:33:33;;;;;;;9.73;6.18;;;8.40;35.30;;;;;;6279389;22;20012;-92
2022/03/12 03:35:59;;;;;;;9.77;6.03;;;8.40;35.30;;;;;;6278997;22;20027;-93
2022/03/12 03:38:25;;;;;;;8.55;6.10;;;8.40;35.40;;;;;;6252289;22;20012;-92
2022/03/12 03:40:51;;;;;;;9.48;6.60;;;8.40;35.30;;;;;;6252487;22;20008;-90
2022/03/12 03:43:23;;;;;;;10.10;7.07;;;8.40;35.30;;;;;;6279147;22;20428;-92
2022/03/12 03:45:53;;;;;;;9.02;6.40;;;8.40;35.30;;;;;;6279348;22;20023;-92
2022/03/12 03:48:21;;;;;;;9.75;6.70;;;8.40;35.60;;;;;;6252367;22;20096;-91
2022/03/12 03:50:49;;;;;;;11.73;7.30;;;8.40;35.80;;;;;;6252244;22;20027;-91
2022/03/12 03:53:17;;;;;;;10.70;6.95;;;8.40;35.90;;;;;;6279423;22;20082;-92
2022/03/12 03:55:44;;;;;;;9.18;7.00;;;8.40;36.30;;;;;;6279925;22;20082;-91
2022/03/12 03:58:12;;;;;;;10.43;6.75;;;8.40;36.60;;;;;;6279624;22;20095;-93
2022/03/12 04:00:38;;;;;;;11.02;6.53;;;8.40;37.10;;;;;;6252877;22;20061;-93
2022/03/12 04:03:04;;;;;;;9.82;6.75;;;8.30;37.30;;;;;;6252907;22;20047;-92
2022/03/12 04:05:39;;;;;;;9.95;7.22;;;8.30;37.60;;;;;;6288494;22;20087;-92
2022/03/12 04:08:08;;;;;;;11.40;6.93;;;8.30;37.70;;;;;;6288647;22;20026;-90
2022/03/12 04:10:35;;;;;;;12.88;6.88;;;8.20;37.70;;;;;;6259026;22;20019;-92
2022/03/12 04:13:02;;;;;;;10.52;7.05;;;8.20;37.90;;;;;;6260198;22;20466;-92
2022/03/12 04:15:28;;;;;;;11.68;7.07;;;8.20;38.40;;;;;;6289372;22;20019;-90
2022/03/12 04:18:15;;;;;;;10.40;7.35;;;8.10;38.70;;;;;;6284823;22;20519;-90
2022/03/12 04:20:45;;;;;;;12.20;6.95;;;8.10;38.70;;;;;;6279494;22;20336;-91
2022/03/12 04:23:12;;;;;;;9.32;6.60;;;8.10;39.00;;;;;;6252414;22;20014;-91
2022/03/12 04:25:39;;;;;;;11.73;6.45;;;8.10;39.40;;;;;;6254633;22;20065;-91
2022/03/12 04:28:06;;;;;;;11.35;6.68;;;8.50;39.50;;;;;;6288560;22;20043;-91
2022/03/12 04:30:32;;;;;;;11.05;6.13;;;8.00;39.50;;;;;;6265779;22;20019;-92
2022/03/12 04:32:58;;;;;;;11.13;6.45;;;7.90;40.00;;;;;;6264120;22;20078;-91
2022/03/12 04:35:24;;;;;;;10.93;6.30;;;7.90;40.30;;;;;;6262795;22;20016;-91
2022/03/12 04:37:52;;;;;;;11.32;7.65;;;7.90;40.70;;;;;;6288459;22;20023;-91
2022/03/12 04:40:26;;;;;;;11.00;7.78;;;7.80;40.90;;;;;;6285604;22;20059;-91
2022/03/12 04:42:53;;;;;;;12.13;7.07;;;7.80;41.50;;;;;;6259624;22;20125;-90
2022/03/12 04:45:22;;;;;;;13.88;8.57;;;7.70;41.70;;;;;;6254529;22;20016;-91
2022/03/12 04:47:50;;;;;;;9.80;7.60;;;7.70;43.20;;;;;;6285457;22;20087;-91
2022/03/12 04:50:17;;;;;;;10.68;7.13;;;7.60;43.60;;;;;;6257679;22;20020;-90
2022/03/12 04:52:44;;;;;;;11.48;7.40;;;7.50;44.10;;;;;;6281191;22;20015;-90
2022/03/12 04:55:12;;;;;;;12.63;6.80;;;7.60;44.30;;;;;;6280322;22;20019;-91
2022/03/12 04:57:39;;;;;;;10.45;6.97;;;7.50;45.10;;;;;;6253753;22;20339;-91
2022/03/12 05:00:07;;;;;;;9.73;6.93;;;7.50;45.30;;;;;;6281157;22;20015;-90
2022/03/12 05:03:13;;;;;;;13.45;7.72;;;7.40;45.60;;;;;;6280782;22;20126;-90
2022/03/12 05:05:41;;;;;;;12.35;8.23;;;7.40;46.60;;;;;;6279819;22;20060;-89
2022/03/12 05:08:17;;;;;;;11.90;7.65;;;7.30;46.40;;;;;;6280501;22;20075;-90
2022/03/12 05:10:47;;;;;;;10.48;6.93;;;7.30;46.60;;;;;;6280182;22;20118;-90
2022/03/12 05:13:12;;;;;;;11.10;7.78;;;7.30;46.80;;;;;;6280491;22;20022;-90
2022/03/12 05:15:39;;;;;;;11.38;6.78;;;7.30;47.00;;;;;;6280705;22;20090;-89
2022/03/12 05:18:14;;;;;;;13.00;8.38;;;7.20;46.60;;;;;;6253642;22;20019;-91
2022/03/12 05:20:46;;;;;;;13.27;7.97;;;7.20;47.10;;;;;;6280468;22;20043;-89
2022/03/12 05:23:13;;;;;;;10.98;7.20;;;7.20;47.40;;;;;;6253343;22;20047;-89
2022/03/12 05:25:41;;;;;;;10.65;7.57;;;7.10;46.80;;;;;;6280359;22;20070;-89
2022/03/12 05:28:09;;;;;;;10.90;7.65;;;7.20;46.60;;;;;;6253101;22;20459;-89
2022/03/12 05:30:34;;;;;;;11.82;7.55;;;7.20;46.20;;;;;;6253340;22;20439;-89
2022/03/12 05:36:25;;;;;;;13.50;8.10;;;7.20;46.20;;;;;;6252927;22;20016;-89
2022/03/12 05:38:50;;;;;;;11.38;8.20;;;7.20;45.60;;;;;;6280465;22;20365;-88
2022/03/12 05:41:16;;;;;;;10.80;7.32;;;7.20;45.30;;;;;;6279756;22;20042;-90
2022/03/12 05:43:46;;;;;;;12.13;7.75;;;7.20;45.30;;;;;;6280199;22;20015;-89
2022/03/12 05:46:20;;;;;;;11.55;7.55;;;7.20;45.50;;;;;;6280573;22;20015;-90
2022/03/12 05:52:27;;;;;;;13.25;8.13;;;7.30;45.70;;;;;;6279667;22;20018;-90
2022/03/12 05:54:52;;;;;;;13.57;7.78;;;7.30;45.50;;;;;;6252789;22;20023;-89
2022/03/12 05:57:18;;;;;;;13.80;8.10;;;7.40;45.60;;;;;;6252713;22;20020;-90
2022/03/12 05:59:45;;;;;;;12.20;7.20;;;7.40;45.90;;;;;;6252105;22;20012;-90
2022/03/12 06:02:11;;;;;;;11.95;8.00;;;7.40;45.70;;;;;;6252834;22;20019;-91
2022/03/12 06:04:36;;;;;;;12.50;8.05;;;7.50;45.60;;;;;;6252346;22;20452;-89
2022/03/12 06:07:02;;;;;;;14.50;8.65;;;7.50;45.50;;;;;;6252562;22;20022;-89
2022/03/12 06:09:28;;;;;;;11.07;7.45;;;7.60;45.60;;;;;;6252051;22;20019;-90
2022/03/12 06:11:54;;;;;;;12.18;7.63;;;7.60;45.60;;;;;;6252725;22;20023;-89
2022/03/12 06:14:21;;;;;;;12.55;8.50;;;7.60;45.70;;;;;;6253420;22;20026;-89
2022/03/12 06:16:50;;;;;;;10.60;7.55;;;7.70;45.60;;;;;;6287978;22;20027;-90
2022/03/12 06:19:21;;;;;;;12.13;8.10;;;7.70;45.60;;;;;;6290407;22;20027;-90
2022/03/12 06:21:48;;;;;;;11.88;8.35;;;7.70;45.60;;;;;;6292547;22;20023;-90
2022/03/12 06:24:14;;;;;;;11.88;7.68;;;7.80;45.60;;;;;;6292651;22;20016;-90
2022/03/12 06:26:41;;;;;;;9.85;7.18;;;7.80;45.30;;;;;;6263580;22;20016;-90
2022/03/12 06:29:12;;;;;;;11.45;7.63;;;7.80;45.10;;;;;;6238061;22;20107;-89
2022/03/12 06:31:39;;;;;;;11.30;8.10;;;7.80;45.00;;;;;;6285985;22;20041;-90
2022/03/12 06:34:05;;;;;;;10.73;7.78;;;7.70;44.80;;;;;;6253972;22;20031;-90
2022/03/12 06:36:31;;;;;;;11.13;7.65;;;7.70;44.50;;;;;;6252860;22;20019;-91
2022/03/12 06:38:57;;;;;;;13.32;8.30;;;7.70;44.20;;;;;;6279821;22;20043;-90
2022/03/12 06:41:23;;;;;;;12.88;7.78;;;7.70;44.20;;;;;;6252498;22;20016;-92
2022/03/12 06:43:53;;;;;;;13.10;7.90;;;7.70;44.00;;;;;;6279478;22;20054;-91
2022/03/12 06:46:21;;;;;;;11.65;8.23;;;7.70;44.00;;;;;;6278800;22;20431;-90
2022/03/12 06:48:46;;;;;;;11.23;7.40;;;7.70;43.90;;;;;;6253116;22;20035;-91
2022/03/12 06:51:13;;;;;;;17.30;8.82;;;7.70;43.90;;;;;;6252347;22;20066;-92
2022/03/12 06:53:39;;;;;;;14.57;7.50;;;7.70;44.00;;;;;;6252528;22;20020;-91
2022/03/12 06:56:07;;;;;;;12.82;8.48;;;7.90;44.20;;;;;;6252367;22;20012;-91
2022/03/12 06:58:33;;;;;;;16.23;7.60;;;7.60;44.20;;;;;;6279213;22;20016;-91
2022/03/12 07:00:59;;;;;;;13.25;7.82;;;7.60;43.80;;;;;;6279532;22;20011;-93
2022/03/12 07:03:24;;;;;;;14.73;8.02;;;7.70;43.90;;;;;;6252195;22;20363;-91
2022/03/12 07:05:51;;;;;;;12.18;7.93;;;7.70;44.10;;;;;;6280501;22;20027;-91
2022/03/12 07:08:19;;;;;;;12.95;7.85;;;7.70;43.90;;;;;;6252550;22;20012;-92
2022/03/12 07:10:46;;;;;;;13.93;9.43;;;7.70;43.90;;;;;;6279077;22;20026;-91
2022/03/12 07:13:12;;;;;;;10.70;7.88;;;7.70;44.00;;;;;;6279667;22;20016;-90
2022/03/12 07:15:38;;;;;;;15.48;8.02;;;7.80;44.50;;;;;;6279405;22;20025;-91
2022/03/12 07:18:04;;;;;;;12.95;8.00;;;7.80;44.00;;;;;;6252400;22;20011;-92
2022/03/12 07:20:29;;;;;;;13.00;8.18;;;7.80;43.80;;;;;;6279941;22;20027;-92
2022/03/12 07:22:55;;;;;;;11.75;8.57;;;7.80;44.00;;;;;;6227059;22;20012;-90
2022/03/12 07:25:21;;;;;;;14.48;8.45;;;7.90;43.80;;;;;;6279268;22;20020;-91
2022/03/12 07:27:47;;;;;;;14.15;9.57;;;7.90;44.10;;;;;;6256326;22;20138;-91
2022/03/12 07:30:14;;;;;;;14.75;8.98;;;8.00;43.80;;;;;;6261154;22;20024;-90
2022/03/12 07:32:42;;;;;;;12.05;8.38;;;8.10;43.90;;;;;;6229995;22;20443;-90
2022/03/12 07:35:28;;;;;;;14.15;8.40;;;8.10;44.00;;;;;;6262121;22;20019;-89
2022/03/12 07:37:54;;;;;;;12.18;8.25;;;8.20;43.90;;;;;;6281178;22;20016;-89
2022/03/12 07:40:20;;;;;;;12.30;8.45;;;8.20;43.60;;;;;;6278966;22;20011;-93
2022/03/12 07:42:47;;;;;;;10.80;8.00;;;8.30;43.50;;;;;;6251446;22;20023;-91
2022/03/12 07:45:13;;;;;;;11.88;7.93;;;8.40;43.70;;;;;;6278727;22;20016;-91
2022/03/12 07:47:39;;;;;;;13.23;9.13;;;8.40;43.80;;;;;;6278732;22;20011;-90
2022/03/12 07:50:35;;;;;;;13.30;8.77;;;8.50;44.30;;;;;;6278783;22;20022;-90
2022/03/12 07:53:01;;;;;;;12.48;8.25;;;8.50;43.90;;;;;;6251777;22;20416;-90
2022/03/12 07:55:27;;;;;;;11.95;8.32;;;8.60;43.70;;;;;;6252685;22;20122;-90
2022/03/12 07:57:52;;;;;;;14.05;9.23;;;8.60;43.80;;;;;;6279124;22;20023;-90
2022/03/12 08:00:18;;;;;;;11.48;8.27;;;8.70;44.00;;;;;;6251814;22;20340;-90
2022/03/12 08:02:46;;;;;;;13.60;8.65;;;8.80;44.10;;;;;;6278512;22;20016;-90
2022/03/12 08:05:21;;;;;;;14.60;9.52;;;8.80;44.20;;;;;;6279154;22;20020;-91
2022/03/12 08:07:46;;;;;;;13.80;8.48;;;8.90;44.30;;;;;;6278664;22;20016;-91
2022/03/12 08:10:12;;;;;;;12.38;7.90;;;8.90;44.50;;;;;;6251644;22;20018;-95
2022/03/12 08:12:38;;;;;;;12.90;8.57;;;9.00;44.40;;;;;;6253343;22;20026;-90
2022/03/12 08:15:08;;;;;;;12.68;8.63;;;9.10;44.80;;;;;;6261618;22;20015;-95
2022/03/12 08:17:35;;;;;;;12.32;9.25;;;9.20;45.30;;;;;;6281471;22;20022;-92
2022/03/12 08:20:03;;;;;;;12.77;8.73;;;9.30;45.70;;;;;;6255063;22;20062;-94
2022/03/12 08:22:29;;;;;;;13.15;8.68;;;9.40;45.90;;;;;;6256458;22;20018;-94
2022/03/12 08:24:55;;;;;;;15.13;8.95;;;9.50;45.90;;;;;;6256195;22;20016;-93
2022/03/12 08:27:20;;;;;;;12.00;8.73;;;9.60;45.60;;;;;;6286154;22;20019;-93
2022/03/12 08:29:46;;;;;;;12.63;9.43;;;9.70;45.90;;;;;;6256823;22;20340;-93
2022/03/12 08:32:12;;;;;;;13.90;8.75;;;9.80;45.90;;;;;;6256604;22;20091;-93
2022/03/12 08:34:37;;;;;;;11.30;8.68;;;10.00;46.00;;;;;;6255773;22;20023;-93
2022/03/12 08:37:04;;;;;;;14.05;9.32;;;10.10;46.10;;;;;;6256000;22;20335;-93
2022/03/12 08:39:30;;;;;;;11.48;8.45;;;10.20;46.40;;;;;;6280551;22;20047;-92
2022/03/12 08:41:57;;;;;;;14.32;8.98;;;10.30;46.70;;;;;;6282360;22;20012;-95
2022/03/12 08:44:23;;;;;;;13.73;8.85;;;10.50;46.50;;;;;;6283683;22;20123;-93
2022/03/12 08:46:48;;;;;;;14.70;9.27;;;10.60;46.60;;;;;;6285644;22;20012;-93
2022/03/12 08:49:16;;;;;;;12.50;9.43;;;10.70;46.60;;;;;;6284444;22;20026;-95
2022/03/12 08:51:42;;;;;;;14.93;9.85;;;11.00;46.40;;;;;;6255924;22;20043;-94
2022/03/12 08:54:09;;;;;;;15.63;9.63;;;11.00;46.40;;;;;;6231495;22;20198;-95
2022/03/12 08:56:35;;;;;;;12.68;8.93;;;11.10;46.60;;;;;;6282742;22;20012;-94
2022/03/12 08:59:02;;;;;;;15.90;8.60;;;11.20;47.10;;;;;;6258902;22;20019;-94
2022/03/12 09:01:28;;;;;;;12.88;8.38;;;11.50;47.20;;;;;;6262632;22;20067;-94
2022/03/12 09:03:54;;;;;;;12.25;8.57;;;11.50;47.30;;;;;;6261547;22;20020;-91
2022/03/12 09:06:19;;;;;;;12.75;8.57;;;11.60;47.50;;;;;;6262374;22;20019;-92
2022/03/12 09:08:46;;;;;;;12.55;8.07;;;11.80;47.70;;;;;;6262272;22;20026;-90
2022/03/12 09:11:16;;;;;;;12.07;8.70;;;11.90;48.20;;;;;;6262035;22;20012;-89
2022/03/12 09:13:42;;;;;;;13.02;8.80;;;12.00;48.50;;;;;;6259502;22;20099;-87
2022/03/12 09:16:07;;;;;;;11.43;9.20;;;12.20;48.50;;;;;;6286409;22;20019;-88
2022/03/12 09:18:33;;;;;;;11.95;8.35;;;12.30;48.40;;;;;;6259513;22;20058;-91
2022/03/12 09:20:59;;;;;;;13.00;8.45;;;12.40;48.50;;;;;;6254603;22;20328;-92
2022/03/12 09:23:25;;;;;;;11.15;8.27;;;12.50;48.50;;;;;;6280736;22;20012;-89
2022/03/12 09:25:51;;;;;;;12.60;9.02;;;12.60;48.40;;;;;;6281843;22;20019;-94
2022/03/12 09:28:19;;;;;;;12.77;9.15;;;12.70;48.40;;;;;;6280330;22;20023;-92
2022/03/12 09:30:50;;;;;;;11.18;8.52;;;12.80;48.60;;;;;;6253644;22;20026;-90
2022/03/12 09:33:17;;;;;;;10.50;8.35;;;12.80;48.80;;;;;;6253543;22;20388;-91
2022/03/12 09:36:03;;;;;;;12.80;8.45;;;12.90;49.00;;;;;;6253095;22;20376;-90
2022/03/12 09:38:29;;;;;;;10.68;7.80;;;12.90;49.00;;;;;;6252862;22;20012;-91
2022/03/12 09:40:55;;;;;;;11.23;7.97;;;13.00;49.10;;;;;;6252859;22;20123;-91
2022/03/12 09:43:20;;;;;;;12.30;8.63;;;13.00;49.00;;;;;;6227625;22;20016;-90
2022/03/12 09:45:46;;;;;;;12.13;7.93;;;13.10;49.00;;;;;;6280168;22;20039;-94
2022/03/12 09:48:12;;;;;;;11.40;8.27;;;13.20;49.30;;;;;;6255079;22;20047;-94
2022/03/12 09:50:53;;;;;;;10.15;7.60;;;13.20;49.40;;;;;;6282569;22;20038;-93
2022/03/12 09:53:19;;;;;;;10.60;7.78;;;13.40;49.90;;;;;;6284438;22;20022;-91
2022/03/12 09:55:44;;;;;;;10.23;7.95;;;13.40;50.10;;;;;;6254583;22;20090;-92
2022/03/12 09:58:10;;;;;;;10.68;7.85;;;13.50;50.30;;;;;;6253849;22;20067;-93
2022/03/12 10:00:36;;;;;;;11.55;7.03;;;13.50;50.50;;;;;;6254440;22;20015;-95
2022/03/12 10:03:05;;;;;;;10.27;6.63;;;13.70;50.60;;;;;;6253843;22;20050;-91
2022/03/12 10:06:07;;;;;;;10.73;7.32;;;13.70;50.90;;;;;;6254760;22;20439;-93
2022/03/12 10:08:33;;;;;;;8.82;6.88;;;13.80;50.60;;;;;;6280903;22;20007;-93
2022/03/12 10:10:59;;;;;;;9.52;7.25;;;13.90;50.50;;;;;;6228599;22;20039;-96
2022/03/12 10:13:25;;;;;;;9.40;7.10;;;13.90;50.70;;;;;;6254084;22;20050;-92
2022/03/12 10:15:51;;;;;;;11.15;8.50;;;14.00;50.80;;;;;;6251706;22;20020;-93
2022/03/12 10:18:19;;;;;;;9.55;7.65;;;14.40;50.90;;;;;;6279821;22;20348;-91
2022/03/12 10:20:45;;;;;;;9.68;8.32;;;14.10;50.70;;;;;;6253027;22;20447;-91
2022/03/12 10:23:11;;;;;;;10.40;7.78;;;14.20;50.40;;;;;;6252533;22;20027;-90
2022/03/12 10:25:39;;;;;;;11.35;10.02;;;14.20;50.10;;;;;;6279360;22;20019;-92
2022/03/12 10:28:05;;;;;;;11.45;9.93;;;14.20;49.90;;;;;;6250228;23;20393;-93
2022/03/12 10:30:31;;;;;;;12.43;8.60;;;14.30;50.20;;;;;;6250175;23;20024;-92
2022/03/12 10:32:57;;;;;;;14.50;12.23;;;14.30;50.10;;;;;;6221980;23;20028;-93
2022/03/12 10:35:23;;;;;;;14.25;11.18;;;14.10;49.90;;;;;;6248230;23;20012;-92
2022/03/12 10:37:53;;;;;;;13.52;8.98;;;14.30;49.90;;;;;;6248218;23;20055;-89
2022/03/12 10:40:23;;;;;;;12.70;8.85;;;14.70;50.00;;;;;;6221614;23;20020;-88
2022/03/12 10:43:05;;;;;;;9.25;7.60;;;14.30;49.90;;;;;;6246344;23;20329;-89
2022/03/12 10:45:39;;;;;;;12.05;9.80;;;14.40;50.40;;;;;;6220723;23;20026;-89
2022/03/12 10:48:05;;;;;;;11.05;9.45;;;14.40;50.30;;;;;;6246546;23;20051;-89
2022/03/12 10:50:36;;;;;;;10.68;8.25;;;14.50;50.20;;;;;;6246023;23;20020;-88
2022/03/12 10:53:06;;;;;;;10.95;7.65;;;14.40;49.90;;;;;;6245438;23;20047;-88
2022/03/12 10:55:34;;;;;;;9.32;7.70;;;14.80;50.00;;;;;;6246090;23;20027;-88
2022/03/12 10:58:09;;;;;;;9.45;8.35;;;14.50;49.90;;;;;;6246825;23;20016;-88
2022/03/12 11:00:38;;;;;;;10.35;7.90;;;14.40;50.00;;;;;;6247882;23;20395;-88
2022/03/12 11:03:08;;;;;;;8.55;7.28;;;14.40;50.10;;;;;;6246056;23;20016;-89
2022/03/12 11:05:36;;;;;;;9.25;7.47;;;14.80;50.40;;;;;;6246215;23;20104;-90
2022/03/12 11:08:13;;;;;;;9.77;7.30;;;14.50;50.30;;;;;;6221719;23;20020;-90
2022/03/12 11:10:58;;;;;;;11.02;7.68;;;14.50;50.30;;;;;;6247167;23;20020;-93
2022/03/12 11:13:40;;;;;;;11.75;7.65;;;14.50;50.10;;;;;;6247539;23;20016;-92
2022/03/12 11:16:26;;;;;;;10.45;7.15;;;14.50;50.20;;;;;;6252703;22;20039;-92
2022/03/12 11:18:52;;;;;;;11.70;7.57;;;14.60;50.30;;;;;;6260620;23;20070;-92
2022/03/12 11:21:40;;;;;;;12.18;7.80;;;14.60;50.20;;;;;;6257542;22;20043;-88
2022/03/12 11:24:48;;;;;;;10.77;7.35;;;14.60;50.20;;;;;;6251429;22;20095;-87
2022/03/12 11:27:26;;;;;;;9.88;7.20;;;14.70;50.10;;;;;;6241543;23;20024;-89
2022/03/12 11:29:57;;;;;;;9.48;7.28;;;14.70;50.20;;;;;;6248780;22;20067;-89
2022/03/12 11:32:24;;;;;;;8.82;6.95;;;14.60;50.50;;;;;;6247299;23;20098;-91
2022/03/12 11:35:07;;;;;;;11.63;6.78;;;14.70;50.90;;;;;;6247993;23;20020;-88
2022/03/12 11:37:36;;;;;;;9.57;7.20;;;14.70;50.10;;;;;;6247502;23;20016;-89
2022/03/12 11:40:04;;;;;;;8.52;6.55;;;14.60;50.10;;;;;;6251603;23;20040;-90
2022/03/12 11:42:35;;;;;;;9.50;6.75;;;14.70;50.00;;;;;;6249936;23;20012;-94
2022/03/12 11:45:05;;;;;;;10.85;7.50;;;14.70;49.90;;;;;;6248564;23;20027;-91
2022/03/12 11:47:37;;;;;;;10.18;6.95;;;14.70;49.50;;;;;;6247149;23;20090;-89
2022/03/12 11:54:03;;;;;;;9.13;6.28;;;14.70;50.00;;;;;;6248720;23;20010;-92
2022/03/12 11:56:30;;;;;;;9.48;6.32;;;14.70;50.20;;;;;;6244432;23;20322;-85
2022/03/12 11:58:56;;;;;;;9.40;6.82;;;14.70;49.90;;;;;;6248110;22;20088;-87
2022/03/12 12:01:22;;;;;;;8.93;6.10;;;14.70;49.80;;;;;;6248459;23;20012;-88
2022/03/12 12:03:50;;;;;;;8.88;6.60;;;14.70;49.50;;;;;;6247455;22;20020;-87
2022/03/12 12:06:16;;;;;;;8.43;6.03;;;14.70;49.50;;;;;;6245616;23;20337;-85
2022/03/12 12:08:43;;;;;;;9.30;5.78;;;14.80;49.50;;;;;;6246324;23;20095;-90
2022/03/12 12:11:10;;;;;;;9.02;5.70;;;14.70;49.20;;;;;;6248140;23;20016;-91
2022/03/12 12:13:36;;;;;;;7.75;6.13;;;14.70;49.40;;;;;;6246791;23;20016;-91
2022/03/12 12:16:04;;;;;;;9.38;5.80;;;14.60;49.40;;;;;;6247188;23;20020;-91
2022/03/12 12:18:29;;;;;;;8.27;5.93;;;14.80;49.60;;;;;;6246876;23;20451;-90
2022/03/12 12:24:43;;;;;;;9.50;6.38;;;14.70;49.40;;;;;;6248395;22;20027;-91
2022/03/12 12:27:11;;;;;;;8.30;5.55;;;14.80;49.50;;;;;;6246771;23;20013;-87
2022/03/12 12:29:48;;;;;;;9.10;6.10;;;14.60;49.70;;;;;;6246959;23;20032;-93
2022/03/12 12:32:20;;;;;;;11.20;6.78;;;14.60;50.00;;;;;;6246838;23;20440;-93
2022/03/12 12:35:29;;;;;;;7.88;5.28;;;14.70;50.00;;;;;;6222037;23;20012;-93
2022/03/12 12:37:58;;;;;;;9.55;6.15;;;14.70;50.00;;;;;;6247769;23;20020;-93
2022/03/12 12:40:36;;;;;;;12.95;5.97;;;14.80;49.80;;;;;;6249107;22;20012;-92
2022/03/12 12:43:13;;;;;;;8.80;5.53;;;14.70;49.70;;;;;;6248406;23;20016;-93
2022/03/12 12:45:53;;;;;;;10.85;5.60;;;15.10;49.90;;;;;;6256051;22;20016;-93
2022/03/12 12:49:01;;;;;;;8.20;5.72;;;14.80;49.90;;;;;;6260046;23;20016;-93
2022/03/12 12:51:27;;;;;;;12.50;5.95;;;14.90;49.80;;;;;;6145068;23;20040;-92
2022/03/12 12:53:55;;;;;;;10.02;6.10;;;14.90;49.80;;;;;;6164383;23;20068;-93
2022/03/12 12:56:25;;;;;;;7.68;5.35;;;14.90;49.30;;;;;;6162963;23;20022;-93
2022/03/12 12:58:53;;;;;;;8.40;5.35;;;14.90;49.50;;;;;;6133612;23;20024;-95
2022/03/12 13:01:33;;;;;;;7.13;5.57;;;14.90;49.60;;;;;;6132727;23;20044;-94
2022/03/12 13:03:58;;;;;;;8.05;5.45;;;15.00;49.70;;;;;;6159081;23;20029;-90
2022/03/12 13:06:47;;;;;;;8.23;4.82;;;15.10;49.70;;;;;;6158795;23;20028;-92
2022/03/12 13:09:33;;;;;;;7.82;5.53;;;15.10;49.20;;;;;;6133358;23;20013;-92
2022/03/12 13:12:03;;;;;;;8.27;5.70;;;15.00;48.50;;;;;;6156850;23;20040;-94
2022/03/12 13:14:40;;;;;;;9.30;5.90;;;15.00;48.70;;;;;;6108840;23;20013;-93
2022/03/12 13:17:06;;;;;;;9.75;6.32;;;14.90;49.10;;;;;;6158087;23;20045;-92
2022/03/12 13:19:33;;;;;;;6.50;4.90;;;14.90;49.50;;;;;;6109000;23;20021;-92